createdAt,value
2023-02-11T00:02:49.442Z,54.28
2023-02-11T00:07:51.202Z,50.65
2023-02-11T00:12:52.964Z,57.72
2023-02-11T00:17:54.704Z,55.08
2023-02-11T00:22:56.396Z,57.38
2023-02-11T00:27:58.224Z,55.25
2023-02-11T00:33:00.137Z,51.55
2023-02-11T00:38:01.890Z,54.85
2023-02-11T00:43:04.125Z,56.38
2023-02-11T00:48:06.364Z,55.17
2023-02-11T00:53:09.683Z,60.08
2023-02-11T00:58:11.616Z,49.17
2023-02-11T01:03:13.639Z,51.83
2023-02-11T01:08:15.802Z,56.45
2023-02-11T01:13:17.559Z,57.40
2023-02-11T01:18:20.037Z,53.47
2023-02-11T01:23:23.247Z,52.93
2023-02-11T01:28:28.942Z,50.67
2023-02-11T01:33:30.866Z,54.40
2023-02-11T01:38:34.478Z,49.03
2023-02-11T01:43:44.645Z,54.20
2023-02-11T01:48:59.636Z,52.95
2023-02-11T01:54:22.805Z,53.90
2023-02-11T01:59:33.048Z,50.92
2023-02-11T02:04:42.224Z,50.65
2023-02-11T02:09:52.929Z,51.70
2023-02-11T02:15:18.386Z,47.97
2023-02-11T02:20:40.996Z,56.40
2023-02-11T02:26:12.101Z,55.28
2023-02-11T02:31:49.976Z,51.53
2023-02-11T02:37:18.843Z,51.25
2023-02-11T02:42:22.330Z,52.58
2023-02-11T02:47:24.180Z,48.38
2023-02-11T02:52:44.744Z,49.05
2023-02-11T02:58:04.397Z,50.10
2023-02-11T03:03:37.273Z,49.10
2023-02-11T03:08:56.938Z,46.40
2023-02-11T03:14:03.425Z,48.83
2023-02-11T03:19:12.338Z,45.83
2023-02-11T03:24:28.148Z,48.85
2023-02-11T03:29:39.278Z,48.78
2023-02-11T03:34:46.830Z,43.28
2023-02-11T03:39:57.206Z,49.13
2023-02-11T03:45:05.394Z,41.88
2023-02-11T03:50:10.955Z,47.78
2023-02-11T03:55:17.531Z,41.72
2023-02-11T04:00:19.491Z,45.15
2023-02-11T04:05:21.348Z,41.70
2023-02-11T04:10:23.124Z,44.83
2023-02-11T04:15:25.229Z,39.42
2023-02-11T04:20:26.940Z,40.75
2023-02-11T04:25:29.161Z,40.58
2023-02-11T04:30:30.947Z,40.63
2023-02-11T04:35:32.731Z,42.38
2023-02-11T04:40:34.555Z,43.55
2023-02-11T04:45:36.352Z,47.30
2023-02-11T04:50:38.218Z,44.63
2023-02-11T04:55:39.995Z,44.17
2023-02-11T05:00:41.849Z,43.65
2023-02-11T05:05:43.837Z,44.95
2023-02-11T05:10:48.633Z,44.63
2023-02-11T05:15:50.711Z,44.60
2023-02-11T05:20:52.855Z,44.20
2023-02-11T05:25:54.603Z,42.85
2023-02-11T05:30:56.674Z,44.50
2023-02-11T05:36:07.294Z,47.50
2023-02-11T05:41:10.313Z,47.45
2023-02-11T05:46:12.288Z,48.03
2023-02-11T05:51:14.247Z,42.30
2023-02-11T05:56:16.193Z,46.78
2023-02-11T06:01:19.200Z,38.42
2023-02-11T06:06:21.236Z,42.75
2023-02-11T06:11:23.309Z,49.47
2023-02-11T06:16:25.132Z,41.78
2023-02-11T06:21:42.479Z,45.03
2023-02-11T06:26:45.478Z,47.33
2023-02-11T06:31:47.430Z,45.85
2023-02-11T06:36:49.212Z,46.15
2023-02-11T06:41:51.075Z,46.55
2023-02-11T06:46:53.226Z,45.22
2023-02-11T06:51:55.006Z,40.35
2023-02-11T06:56:56.770Z,44.40
2023-02-11T07:01:58.556Z,44.70
2023-02-11T07:07:00.358Z,45.30
2023-02-11T07:12:02.127Z,41.58
2023-02-11T07:17:04.847Z,46.72
2023-02-11T07:22:06.839Z,43.63
2023-02-11T07:27:08.769Z,49.17
2023-02-11T07:32:10.741Z,43.22
2023-02-11T07:37:12.538Z,43.83
2023-02-11T07:42:14.691Z,40.17
2023-02-11T07:47:16.950Z,42.50
2023-02-11T07:52:19.135Z,42.47
2023-02-11T07:57:21.214Z,47.78
2023-02-11T08:02:23.020Z,41.47
2023-02-11T08:07:26.087Z,42.22
2023-02-11T08:12:27.890Z,41.88
2023-02-11T08:17:29.767Z,41.83
2023-02-11T08:22:33.036Z,37.58
2023-02-11T08:27:34.837Z,42.80
2023-02-11T08:32:36.682Z,43.58
2023-02-11T08:37:38.648Z,37.67
2023-02-11T08:42:40.405Z,39.55
2023-02-11T08:47:42.134Z,39.40
2023-02-11T08:52:44.622Z,41.88
2023-02-11T08:57:46.379Z,35.50
2023-02-11T09:02:48.442Z,42.83
2023-02-11T09:07:50.195Z,35.22
2023-02-11T09:12:51.990Z,36.35
2023-02-11T09:17:53.742Z,38.78
2023-02-11T09:22:58.678Z,34.15
2023-02-11T09:28:00.941Z,33.83
2023-02-11T09:33:03.253Z,37.90
2023-02-11T09:38:05.136Z,37.08
2023-02-11T09:43:35.451Z,32.50
2023-02-11T09:48:41.799Z,35.17
2023-02-11T09:53:43.855Z,34.00
2023-02-11T09:58:47.235Z,33.60
2023-02-11T10:04:14.007Z,33.63
2023-02-11T10:09:41.950Z,35.25
2023-02-11T10:15:08.146Z,32.30
2023-02-11T10:20:46.606Z,25.10
2023-02-11T10:25:56.237Z,33.08
2023-02-11T10:31:38.799Z,30.10
2023-02-11T10:36:43.287Z,32.75
2023-02-11T10:41:49.220Z,34.15
2023-02-11T10:46:52.113Z,34.17
2023-02-11T10:52:17.456Z,33.17
2023-02-11T10:57:20.104Z,33.75
2023-02-11T11:02:31.910Z,34.75
2023-02-11T11:07:34.424Z,34.25
2023-02-11T11:12:42.061Z,30.63
2023-02-11T11:17:44.699Z,35.45
2023-02-11T11:22:48.161Z,32.88
2023-02-11T11:27:53.110Z,33.30
2023-02-11T11:32:56.529Z,31.45
2023-02-11T11:38:04.987Z,37.38
2023-02-11T11:43:12.767Z,36.38
2023-02-11T11:48:24.971Z,32.05
2023-02-11T11:54:02.316Z,29.92
2023-02-11T11:59:14.014Z,35.25
2023-02-11T12:04:18.858Z,34.50
2023-02-11T12:09:28.759Z,39.03
2023-02-11T12:14:50.807Z,35.97
2023-02-11T12:20:18.145Z,38.92
2023-02-11T12:25:41.573Z,33.75
2023-02-11T12:31:13.394Z,34.17
2023-02-11T12:36:45.162Z,22.55
2023-02-11T12:42:22.132Z,36.65
2023-02-11T12:47:53.113Z,33.15
2023-02-11T12:53:00.757Z,40.72
2023-02-11T12:58:02.559Z,32.88
2023-02-11T13:03:33.141Z,36.58
2023-02-11T13:08:40.684Z,32.15
2023-02-11T13:13:45.380Z,35.05
2023-02-11T13:18:53.385Z,29.75
2023-02-11T13:24:08.039Z,41.83
2023-02-11T13:34:47.826Z,36.10
2023-02-11T13:40:17.089Z,37.35
2023-02-11T13:45:33.734Z,35.13
2023-02-11T13:50:39.578Z,31.55
2023-02-11T13:55:49.734Z,38.53
2023-02-11T14:00:52.254Z,37.03
2023-02-11T14:06:28.479Z,34.78
2023-02-11T14:11:45.146Z,36.28
2023-02-11T14:17:02.040Z,40.60
2023-02-11T14:22:10.395Z,44.78
2023-02-11T14:27:25.726Z,38.67
2023-02-11T14:32:38.138Z,30.77
2023-02-11T14:37:50.936Z,42.75
2023-02-11T14:42:55.172Z,48.42
2023-02-11T14:48:14.491Z,39.88
2023-02-11T14:53:19.483Z,31.00
2023-02-11T14:58:24.296Z,37.20
2023-02-11T15:03:47.682Z,34.50
2023-02-11T15:09:15.175Z,28.92
2023-02-11T15:14:46.387Z,35.83
2023-02-11T15:19:53.189Z,34.80
2023-02-11T15:25:17.168Z,29.92
2023-02-11T15:30:21.969Z,33.70
2023-02-11T15:35:44.425Z,36.45
2023-02-11T15:40:56.538Z,33.58
2023-02-11T15:46:01.624Z,36.58
2023-02-11T15:51:31.602Z,31.73
2023-02-11T15:56:43.237Z,38.20
2023-02-11T16:01:46.656Z,38.20
2023-02-11T16:06:50.126Z,38.50
2023-02-11T16:11:51.830Z,36.13
2023-02-11T16:17:13.910Z,36.78
2023-02-11T16:22:28.062Z,37.58
2023-02-11T16:27:38.789Z,39.35
2023-02-11T16:32:40.483Z,36.33
2023-02-11T16:37:42.200Z,39.10
2023-02-11T16:42:43.887Z,40.85
2023-02-11T16:47:46.172Z,40.17
2023-02-11T16:52:48.399Z,42.17
2023-02-11T16:57:50.498Z,39.35
2023-02-11T17:02:52.292Z,34.58
2023-02-11T17:07:54.014Z,44.47
2023-02-11T17:12:55.719Z,42.83
2023-02-11T17:17:57.810Z,36.15
2023-02-11T17:22:59.584Z,51.22
2023-02-11T17:28:01.360Z,38.45
2023-02-11T17:33:03.108Z,48.95
2023-02-11T17:38:05.229Z,64.15
2023-02-11T17:43:07.136Z,67.28
2023-02-11T17:48:09.194Z,44.85
2023-02-11T17:53:11.109Z,40.97
2023-02-11T17:58:12.973Z,42.38
2023-02-11T18:03:14.790Z,39.53
2023-02-11T18:08:16.636Z,40.30
2023-02-11T18:13:18.669Z,38.55
2023-02-11T18:18:20.435Z,39.80
2023-02-11T18:23:22.218Z,36.15
2023-02-11T18:28:24.083Z,40.88
2023-02-11T18:33:26.212Z,43.72
2023-02-11T18:38:28.166Z,40.05
2023-02-11T18:43:33.705Z,48.08
2023-02-11T18:48:35.649Z,44.40
2023-02-11T18:53:37.759Z,41.13
2023-02-11T18:58:39.598Z,42.22
2023-02-11T19:03:42.006Z,42.45
2023-02-11T19:08:43.899Z,43.00
2023-02-11T19:13:49.622Z,41.22
2023-02-11T19:18:51.365Z,34.92
2023-02-11T19:23:53.047Z,47.53
2023-02-11T19:28:57.654Z,42.53
2023-02-11T19:34:01.133Z,47.45
2023-02-11T19:39:05.055Z,49.58
2023-02-11T19:44:07.886Z,50.50
2023-02-11T19:49:14.426Z,49.30
2023-02-11T19:54:17.145Z,44.63
2023-02-11T19:59:19.709Z,49.13
2023-02-11T20:04:21.512Z,52.00
2023-02-11T20:09:23.354Z,54.47
2023-02-11T20:14:27.852Z,53.17
2023-02-11T20:24:32.338Z,42.15
2023-02-11T20:29:34.295Z,49.97
2023-02-11T20:34:36.044Z,48.70
2023-02-11T20:39:40.866Z,18.52
2023-02-11T20:44:42.716Z,30.45
2023-02-11T20:49:44.510Z,31.50
2023-02-11T20:54:46.284Z,34.60
2023-02-11T20:59:48.059Z,36.70
2023-02-11T21:04:49.976Z,39.67
2023-02-11T21:09:51.773Z,27.27
2023-02-11T21:14:54.853Z,18.77
2023-02-11T21:19:56.696Z,49.63
2023-02-11T21:24:58.504Z,49.95
2023-02-11T21:30:01.361Z,49.20
2023-02-11T21:35:03.704Z,49.40
2023-02-11T21:40:06.212Z,49.47
2023-02-11T21:45:09.023Z,41.92
2023-02-11T21:50:11.213Z,43.10
2023-02-11T21:55:13.426Z,52.20
2023-02-11T22:00:16.186Z,51.58
2023-02-11T22:05:18.043Z,31.33
2023-02-11T22:10:20.214Z,31.02
2023-02-11T22:15:21.998Z,23.23
2023-02-11T22:20:23.826Z,46.97
2023-02-11T22:25:25.606Z,45.28
2023-02-11T22:30:27.338Z,39.05
2023-02-11T22:35:29.417Z,41.28
2023-02-11T22:40:31.154Z,29.88
2023-02-11T22:45:34.243Z,48.20
2023-02-11T22:50:36.050Z,36.78
2023-02-11T22:55:38.916Z,31.70
2023-02-11T23:00:42.069Z,32.00
2023-02-11T23:05:43.858Z,24.77
2023-02-11T23:10:45.693Z,16.98
2023-02-11T23:15:47.913Z,31.33
2023-02-11T23:20:49.658Z,26.52
2023-02-11T23:25:51.419Z,59.00
2023-02-11T23:30:53.607Z,67.00
2023-02-11T23:35:55.801Z,61.35
2023-02-11T23:40:57.754Z,65.50
2023-02-11T23:45:59.678Z,63.10
2023-02-11T23:51:04.719Z,66.47
2023-02-11T23:56:13.459Z,60.10
